createdAt,value
2022-12-31T00:01:58.971Z,11.19
2022-12-31T00:04:26.903Z,11.20
2022-12-31T00:06:54.671Z,11.22
2022-12-31T00:09:24.324Z,11.22
2022-12-31T00:11:52.106Z,11.23
2022-12-31T00:14:19.966Z,11.23
2022-12-31T00:16:47.780Z,11.21
2022-12-31T00:19:15.619Z,11.22
2022-12-31T00:21:44.961Z,11.22
2022-12-31T00:24:13.139Z,11.23
2022-12-31T00:26:42.937Z,11.23
2022-12-31T00:29:11.547Z,11.23
2022-12-31T00:31:40.172Z,11.24
2022-12-31T00:34:08.434Z,11.23
2022-12-31T00:36:38.391Z,11.25
2022-12-31T00:39:08.620Z,11.27
2022-12-31T00:41:36.688Z,11.27
2022-12-31T00:44:05.909Z,11.25
2022-12-31T00:49:01.580Z,11.26
2022-12-31T00:51:29.619Z,11.27
2022-12-31T00:53:58.318Z,11.25
2022-12-31T00:56:29.251Z,11.24
2022-12-31T00:58:57.472Z,11.22
2022-12-31T01:01:28.107Z,11.19
2022-12-31T01:03:59.357Z,11.14
2022-12-31T01:06:27.311Z,11.11
2022-12-31T01:08:55.766Z,11.10
2022-12-31T01:11:24.601Z,11.09
2022-12-31T01:13:54.101Z,11.07
2022-12-31T01:16:23.532Z,11.07
2022-12-31T01:18:52.863Z,11.08
2022-12-31T01:21:20.986Z,11.09
2022-12-31T01:23:49.196Z,11.10
2022-12-31T01:26:19.252Z,11.07
2022-12-31T01:28:47.409Z,11.02
2022-12-31T01:31:17.748Z,11.02
2022-12-31T01:33:45.615Z,11.04
2022-12-31T01:36:23.385Z,11.05
2022-12-31T01:38:53.582Z,11.04
2022-12-31T01:41:23.553Z,11.00
2022-12-31T01:43:54.276Z,11.01
2022-12-31T01:46:28.193Z,11.01
2022-12-31T01:49:02.074Z,10.98
2022-12-31T01:51:34.346Z,10.98
2022-12-31T01:54:04.400Z,10.98
2022-12-31T01:56:32.337Z,10.94
2022-12-31T01:59:00.915Z,10.95
2022-12-31T02:01:31.580Z,10.93
2022-12-31T02:04:02.951Z,10.91
2022-12-31T02:06:37.493Z,10.90
2022-12-31T02:09:05.543Z,10.88
2022-12-31T02:11:36.640Z,10.88
2022-12-31T02:14:05.656Z,10.87
2022-12-31T02:16:40.728Z,10.87
2022-12-31T02:19:29.605Z,10.81
2022-12-31T02:22:08.496Z,10.80
2022-12-31T02:25:02.296Z,10.79
2022-12-31T02:27:44.689Z,10.76
2022-12-31T02:30:16.549Z,10.73
2022-12-31T02:32:55.664Z,10.70
2022-12-31T02:35:29.637Z,10.68
2022-12-31T02:38:02.004Z,10.65
2022-12-31T02:40:30.318Z,10.65
2022-12-31T02:42:58.103Z,10.65
2022-12-31T02:45:32.845Z,10.65
2022-12-31T02:48:14.968Z,10.60
2022-12-31T02:50:56.264Z,10.57
2022-12-31T02:53:40.381Z,10.54
2022-12-31T02:56:14.747Z,10.53
2022-12-31T02:59:09.743Z,10.53
2022-12-31T03:01:55.686Z,10.50
2022-12-31T03:04:34.170Z,10.49
2022-12-31T03:07:04.258Z,10.49
2022-12-31T03:09:32.565Z,10.49
2022-12-31T03:12:19.033Z,10.47
2022-12-31T03:14:46.850Z,10.48
2022-12-31T03:17:16.401Z,10.46
2022-12-31T03:20:01.678Z,10.41
2022-12-31T03:22:29.653Z,10.40
2022-12-31T03:25:17.722Z,10.38
2022-12-31T03:27:46.072Z,10.35
2022-12-31T03:30:15.896Z,10.34
2022-12-31T03:32:46.213Z,10.32
2022-12-31T03:35:16.140Z,10.30
2022-12-31T03:37:44.448Z,10.28
2022-12-31T03:40:14.522Z,10.26
2022-12-31T03:42:42.771Z,10.25
2022-12-31T03:45:11.991Z,10.23
2022-12-31T03:47:40.199Z,10.23
2022-12-31T03:50:11.788Z,10.21
2022-12-31T03:52:39.619Z,10.20
2022-12-31T03:55:09.071Z,10.15
2022-12-31T03:57:37.112Z,10.14
2022-12-31T04:00:06.320Z,10.10
2022-12-31T04:02:35.125Z,10.10
2022-12-31T04:05:03.137Z,10.09
2022-12-31T04:07:32.357Z,10.07
2022-12-31T04:10:00.419Z,10.08
2022-12-31T04:12:28.253Z,10.08
2022-12-31T04:14:56.061Z,10.04
2022-12-31T04:17:24.010Z,10.04
2022-12-31T04:19:51.819Z,10.00
2022-12-31T04:22:20.030Z,10.01
2022-12-31T04:24:49.435Z,9.94
2022-12-31T04:27:17.316Z,9.98
2022-12-31T04:29:45.237Z,9.94
2022-12-31T04:32:13.072Z,9.92
2022-12-31T04:34:40.921Z,9.89
2022-12-31T04:37:08.688Z,9.92
2022-12-31T04:39:36.506Z,9.85
2022-12-31T04:42:05.798Z,9.87
2022-12-31T04:44:35.081Z,9.87
2022-12-31T04:47:03.024Z,9.89
2022-12-31T04:49:30.782Z,9.90
2022-12-31T04:51:58.571Z,9.91
2022-12-31T04:54:26.386Z,9.90
2022-12-31T04:56:54.205Z,9.91
2022-12-31T04:59:23.408Z,9.87
2022-12-31T05:01:51.306Z,9.91
2022-12-31T05:04:19.138Z,9.97
2022-12-31T05:06:47.061Z,9.93
2022-12-31T05:09:14.813Z,9.96
2022-12-31T05:11:42.577Z,9.98
2022-12-31T05:14:10.425Z,10.02
2022-12-31T05:16:39.563Z,10.03
2022-12-31T05:19:09.540Z,10.03
2022-12-31T05:21:37.484Z,10.04
2022-12-31T05:24:05.771Z,10.05
2022-12-31T05:26:33.765Z,10.06
2022-12-31T05:29:01.646Z,10.08
2022-12-31T05:31:29.505Z,10.10
2022-12-31T05:33:58.784Z,10.13
2022-12-31T05:36:26.601Z,10.17
2022-12-31T05:38:54.393Z,10.23
2022-12-31T05:41:22.174Z,10.26
2022-12-31T05:43:51.315Z,10.29
2022-12-31T05:46:19.128Z,10.33
2022-12-31T05:48:46.954Z,10.36
2022-12-31T05:51:16.061Z,10.39
2022-12-31T05:53:43.881Z,10.45
2022-12-31T05:56:11.690Z,10.49
2022-12-31T05:58:39.483Z,10.51
2022-12-31T06:01:07.285Z,10.55
2022-12-31T06:03:35.140Z,10.58
2022-12-31T06:06:02.985Z,10.61
2022-12-31T06:08:32.186Z,10.63
2022-12-31T06:11:00.079Z,10.64
2022-12-31T06:13:27.891Z,10.66
2022-12-31T06:15:55.718Z,10.67
2022-12-31T06:18:23.587Z,10.68
2022-12-31T06:20:51.384Z,10.70
2022-12-31T06:23:19.218Z,10.71
2022-12-31T06:25:48.550Z,10.73
2022-12-31T06:28:20.429Z,10.75
2022-12-31T06:30:48.836Z,10.78
2022-12-31T06:33:16.646Z,10.80
2022-12-31T06:35:44.406Z,10.83
2022-12-31T06:38:12.161Z,10.85
2022-12-31T06:40:39.921Z,10.87
2022-12-31T06:43:09.030Z,10.91
2022-12-31T06:45:36.861Z,10.96
2022-12-31T06:48:05.039Z,11.02
2022-12-31T06:50:32.917Z,11.04
2022-12-31T06:53:00.704Z,11.08
2022-12-31T06:55:29.115Z,11.13
2022-12-31T06:57:57.767Z,11.20
2022-12-31T07:00:27.579Z,11.24
2022-12-31T07:03:11.261Z,11.30
2022-12-31T07:05:45.591Z,11.40
2022-12-31T07:08:30.321Z,11.46
2022-12-31T07:11:05.087Z,11.55
2022-12-31T07:14:00.948Z,11.62
2022-12-31T07:16:42.209Z,11.64
2022-12-31T07:19:26.090Z,11.68
2022-12-31T07:21:56.679Z,11.69
2022-12-31T07:24:25.061Z,11.72
2022-12-31T07:27:05.177Z,11.78
2022-12-31T07:29:47.743Z,11.86
2022-12-31T07:32:29.413Z,11.90
2022-12-31T07:35:05.505Z,11.94
2022-12-31T07:37:40.947Z,12.00
2022-12-31T07:40:18.126Z,12.03
2022-12-31T07:43:03.309Z,12.09
2022-12-31T07:45:42.003Z,12.13
2022-12-31T07:48:23.095Z,12.15
2022-12-31T07:50:51.891Z,12.18
2022-12-31T07:53:20.112Z,12.21
2022-12-31T07:55:49.032Z,12.23
2022-12-31T07:58:23.295Z,12.29
2022-12-31T08:00:53.691Z,12.30
2022-12-31T08:03:41.937Z,12.33
2022-12-31T08:06:13.494Z,12.32
2022-12-31T08:08:51.914Z,12.33
2022-12-31T08:11:28.706Z,12.32
2022-12-31T08:13:57.578Z,12.32
2022-12-31T08:16:25.939Z,12.31
2022-12-31T08:18:55.791Z,12.31
2022-12-31T08:21:35.269Z,12.32
2022-12-31T08:24:13.819Z,12.33
2022-12-31T08:26:53.389Z,12.35
2022-12-31T08:29:35.330Z,12.31
2022-12-31T08:32:11.623Z,12.30
2022-12-31T08:34:50.255Z,12.28
2022-12-31T08:37:25.571Z,12.25
2022-12-31T08:40:09.401Z,12.24
2022-12-31T08:42:44.937Z,12.23
2022-12-31T08:45:20.253Z,12.23
2022-12-31T08:47:59.545Z,12.20
2022-12-31T08:50:30.449Z,12.18
2022-12-31T08:52:58.969Z,12.16
2022-12-31T08:55:27.294Z,12.14
2022-12-31T08:58:11.223Z,12.11
2022-12-31T09:00:40.014Z,12.09
2022-12-31T09:03:43.008Z,12.07
2022-12-31T09:06:20.888Z,12.07
2022-12-31T09:08:54.670Z,12.07
2022-12-31T09:11:29.828Z,12.10
2022-12-31T09:14:08.460Z,12.08
2022-12-31T09:16:49.565Z,12.10
2022-12-31T09:19:17.371Z,12.13
2022-12-31T09:21:47.248Z,12.12
2022-12-31T09:24:16.742Z,12.14
2022-12-31T09:26:55.520Z,12.19
2022-12-31T09:29:38.848Z,12.25
2022-12-31T09:32:16.284Z,12.29
2022-12-31T09:34:55.042Z,12.33
2022-12-31T09:37:37.064Z,12.37
2022-12-31T09:40:33.567Z,12.39
2022-12-31T09:43:24.519Z,12.40
2022-12-31T09:46:15.539Z,12.41
2022-12-31T09:49:22.757Z,12.43
2022-12-31T09:51:57.663Z,12.44
2022-12-31T09:54:41.117Z,12.48
2022-12-31T09:57:35.246Z,12.51
2022-12-31T10:00:06.695Z,12.54
2022-12-31T10:02:58.499Z,12.55
2022-12-31T10:05:57.618Z,12.56
2022-12-31T10:08:47.848Z,12.59
2022-12-31T10:11:25.889Z,12.66
2022-12-31T10:14:07.026Z,12.73
2022-12-31T10:17:05.998Z,12.82
2022-12-31T10:20:05.619Z,12.89
2022-12-31T10:22:51.281Z,12.95
2022-12-31T10:25:39.529Z,12.99
2022-12-31T10:28:19.293Z,13.04
2022-12-31T10:31:00.373Z,13.09
2022-12-31T10:33:42.551Z,13.12
2022-12-31T10:36:19.200Z,13.14
2022-12-31T10:38:57.445Z,13.17
2022-12-31T10:41:58.652Z,13.17
2022-12-31T10:44:57.865Z,13.19
2022-12-31T10:48:17.650Z,13.20
2022-12-31T10:51:19.201Z,13.20
2022-12-31T10:54:06.936Z,13.19
2022-12-31T10:57:15.213Z,13.23
2022-12-31T11:00:03.276Z,13.26
2022-12-31T11:03:08.272Z,13.27
2022-12-31T11:06:21.682Z,13.27
2022-12-31T11:09:06.979Z,13.27
2022-12-31T11:11:45.193Z,13.29
2022-12-31T11:14:58.193Z,13.30
2022-12-31T11:17:47.629Z,13.28
2022-12-31T11:20:30.745Z,13.28
2022-12-31T11:23:09.382Z,13.27
2022-12-31T11:25:50.873Z,13.28
2022-12-31T11:28:31.517Z,13.28
2022-12-31T11:31:13.802Z,13.27
2022-12-31T11:33:57.416Z,13.23
2022-12-31T11:36:37.514Z,13.24
2022-12-31T11:39:31.091Z,13.26
2022-12-31T11:42:11.563Z,13.26
2022-12-31T11:44:47.651Z,13.26
2022-12-31T11:47:49.662Z,13.29
2022-12-31T11:50:38.432Z,13.34
2022-12-31T11:53:23.942Z,13.29
2022-12-31T11:56:10.524Z,13.32
2022-12-31T11:58:38.508Z,13.34
2022-12-31T12:01:12.674Z,13.34
2022-12-31T12:03:43.761Z,13.34
2022-12-31T12:06:12.847Z,13.35
2022-12-31T12:08:40.489Z,13.38
2022-12-31T12:11:14.835Z,13.37
2022-12-31T12:13:42.667Z,13.37
2022-12-31T12:16:10.560Z,13.39
2022-12-31T12:18:46.024Z,13.36
2022-12-31T12:21:15.628Z,13.35
2022-12-31T12:23:54.546Z,13.34
2022-12-31T12:26:31.553Z,13.33
2022-12-31T12:29:00.496Z,13.30
2022-12-31T12:31:28.381Z,13.29
2022-12-31T12:33:57.574Z,13.28
2022-12-31T12:36:25.374Z,13.28
2022-12-31T12:39:02.431Z,13.27
2022-12-31T12:41:30.138Z,13.28
2022-12-31T12:44:05.930Z,13.25
2022-12-31T12:46:36.507Z,13.24
2022-12-31T12:49:06.683Z,13.26
2022-12-31T12:51:46.554Z,13.24
2022-12-31T12:54:29.603Z,13.24
2022-12-31T12:57:05.726Z,13.26
2022-12-31T13:00:03.060Z,13.27
2022-12-31T13:02:58.026Z,13.26
2022-12-31T13:05:32.968Z,13.26
2022-12-31T13:08:14.189Z,13.26
2022-12-31T13:10:58.307Z,13.25
2022-12-31T13:13:38.097Z,13.26
2022-12-31T13:16:11.557Z,13.27
2022-12-31T13:18:51.297Z,13.26
2022-12-31T13:21:37.274Z,13.25
2022-12-31T13:24:12.619Z,13.23
2022-12-31T13:26:46.050Z,13.22
2022-12-31T13:29:18.816Z,13.22
2022-12-31T13:31:48.369Z,13.19
2022-12-31T13:34:19.594Z,13.18
2022-12-31T13:36:51.609Z,13.17
2022-12-31T13:39:24.694Z,13.17
2022-12-31T13:41:58.838Z,13.14
2022-12-31T13:44:31.999Z,13.13
2022-12-31T13:47:05.355Z,13.12
2022-12-31T13:49:38.839Z,13.12
2022-12-31T13:52:22.761Z,13.10
2022-12-31T13:54:57.374Z,13.11
2022-12-31T13:57:38.753Z,13.11
2022-12-31T14:00:14.476Z,13.09
2022-12-31T14:02:49.088Z,13.08
2022-12-31T14:05:24.379Z,13.11
2022-12-31T14:07:55.657Z,13.12
2022-12-31T14:10:33.598Z,13.13
2022-12-31T14:13:13.153Z,13.10
2022-12-31T14:15:50.428Z,13.11
2022-12-31T14:18:25.129Z,13.10
2022-12-31T14:21:00.208Z,13.10
2022-12-31T14:23:42.314Z,13.11
2022-12-31T14:26:20.799Z,13.12
2022-12-31T14:28:54.590Z,13.11
2022-12-31T14:31:35.031Z,13.12
2022-12-31T14:34:10.568Z,13.08
2022-12-31T14:36:51.690Z,13.04
2022-12-31T14:39:34.244Z,12.96
2022-12-31T14:42:17.936Z,12.87
2022-12-31T14:45:00.729Z,12.84
2022-12-31T14:47:37.849Z,12.80
2022-12-31T14:50:10.853Z,12.77
2022-12-31T14:52:50.761Z,12.75
2022-12-31T14:55:29.142Z,12.75
2022-12-31T15:00:54.058Z,12.72
2022-12-31T15:03:27.403Z,12.73
2022-12-31T15:06:01.588Z,12.72
2022-12-31T15:08:50.112Z,12.67
2022-12-31T15:11:33.144Z,12.70
2022-12-31T15:14:15.271Z,12.72
2022-12-31T15:16:54.249Z,12.74
2022-12-31T15:19:47.445Z,12.70
2022-12-31T15:22:30.183Z,12.71
2022-12-31T15:25:00.141Z,12.71
2022-12-31T15:27:36.209Z,12.70
2022-12-31T15:30:05.406Z,12.72
2022-12-31T15:32:36.899Z,12.71
2022-12-31T15:35:25.148Z,12.74
2022-12-31T15:38:00.313Z,12.80
2022-12-31T15:40:29.086Z,12.78
2022-12-31T15:43:03.707Z,12.86
2022-12-31T15:45:37.408Z,12.94
2022-12-31T15:48:14.662Z,12.97
2022-12-31T15:50:44.206Z,12.91
2022-12-31T15:53:27.556Z,12.99
2022-12-31T15:55:57.579Z,13.05
2022-12-31T15:58:29.235Z,13.07
2022-12-31T16:01:04.765Z,13.14
2022-12-31T16:03:34.445Z,13.19
2022-12-31T16:06:04.504Z,13.20
2022-12-31T16:08:34.851Z,13.21
2022-12-31T16:11:05.308Z,13.26
2022-12-31T16:13:37.647Z,13.26
2022-12-31T16:16:08.763Z,13.32
2022-12-31T16:18:41.150Z,13.30
2022-12-31T16:21:24.895Z,13.33
2022-12-31T16:23:53.909Z,13.36
2022-12-31T16:26:24.020Z,13.40
2022-12-31T16:28:53.206Z,13.60
2022-12-31T16:31:21.873Z,13.85
2022-12-31T16:33:49.839Z,14.07
2022-12-31T16:36:22.561Z,14.27
2022-12-31T16:38:51.044Z,14.27
2022-12-31T16:41:20.948Z,14.34
2022-12-31T16:43:49.794Z,14.38
2022-12-31T16:46:22.967Z,14.41
2022-12-31T16:48:55.155Z,14.38
2022-12-31T16:51:26.743Z,14.39
2022-12-31T16:53:54.645Z,14.43
2022-12-31T16:56:27.242Z,14.46
2022-12-31T16:59:01.260Z,14.43
2022-12-31T17:01:33.851Z,14.50
2022-12-31T17:04:05.188Z,14.50
2022-12-31T17:06:33.759Z,14.50
2022-12-31T17:09:20.487Z,14.45
2022-12-31T17:11:53.103Z,14.47
2022-12-31T17:14:24.035Z,14.46
2022-12-31T17:17:03.358Z,14.46
2022-12-31T17:19:40.083Z,14.46
2022-12-31T17:22:11.556Z,14.47
2022-12-31T17:24:40.151Z,14.50
2022-12-31T17:27:10.336Z,14.50
2022-12-31T17:29:38.304Z,14.46
2022-12-31T17:32:26.549Z,14.49
2022-12-31T17:34:54.648Z,14.44
2022-12-31T17:37:26.965Z,14.43
2022-12-31T17:40:10.861Z,14.42
2022-12-31T17:42:47.411Z,14.41
2022-12-31T17:45:20.911Z,14.41
2022-12-31T17:47:53.916Z,14.41
2022-12-31T17:50:23.333Z,14.43
2022-12-31T17:52:51.390Z,14.47
2022-12-31T17:55:20.350Z,14.47
2022-12-31T17:57:52.263Z,14.53
2022-12-31T18:00:22.157Z,14.55
2022-12-31T18:02:51.318Z,14.52
2022-12-31T18:05:21.530Z,14.56
2022-12-31T18:07:50.179Z,14.53
2022-12-31T18:10:21.068Z,14.49
2022-12-31T18:12:49.912Z,14.53
2022-12-31T18:15:20.106Z,14.53
2022-12-31T18:17:48.557Z,14.52
2022-12-31T18:20:18.627Z,14.48
2022-12-31T18:22:46.861Z,14.49
2022-12-31T18:25:17.843Z,14.50
2022-12-31T18:27:45.688Z,14.49
2022-12-31T18:30:16.396Z,14.48
2022-12-31T18:32:46.106Z,14.47
2022-12-31T18:35:48.606Z,14.48
2022-12-31T18:38:08.135Z,14.56
2022-12-31T18:40:35.987Z,14.55
2022-12-31T18:43:05.311Z,14.54
2022-12-31T18:45:33.296Z,14.61
2022-12-31T18:48:01.141Z,14.61
2022-12-31T18:50:29.034Z,14.67
2022-12-31T18:52:56.881Z,14.67
2022-12-31T18:55:33.120Z,14.68
2022-12-31T18:58:00.929Z,14.65
2022-12-31T19:00:28.766Z,14.65
2022-12-31T19:02:56.634Z,14.68
2022-12-31T19:05:27.048Z,14.70
2022-12-31T19:07:55.391Z,14.69
2022-12-31T19:10:23.986Z,14.73
2022-12-31T19:12:53.782Z,14.73
2022-12-31T19:15:29.564Z,14.69
2022-12-31T19:17:57.732Z,14.67
2022-12-31T19:20:25.821Z,14.74
2022-12-31T19:22:53.643Z,14.78
2022-12-31T19:25:23.426Z,14.82
2022-12-31T19:27:53.130Z,14.75
2022-12-31T19:30:24.562Z,14.73
2022-12-31T19:32:52.709Z,14.72
2022-12-31T19:35:21.337Z,14.71
2022-12-31T19:37:51.029Z,14.68
2022-12-31T19:40:22.096Z,14.62
2022-12-31T19:42:50.440Z,14.56
2022-12-31T19:45:21.443Z,14.56
2022-12-31T19:47:49.644Z,14.61
2022-12-31T19:50:19.528Z,14.61
2022-12-31T19:52:48.878Z,14.57
2022-12-31T19:55:19.645Z,14.53
2022-12-31T19:57:48.257Z,14.57
2022-12-31T20:00:18.213Z,14.58
2022-12-31T20:02:49.182Z,14.59
2022-12-31T20:05:19.433Z,14.67
2022-12-31T20:07:47.292Z,14.69
2022-12-31T20:10:15.160Z,14.69
2022-12-31T20:12:44.764Z,14.68
2022-12-31T20:15:12.829Z,14.67
2022-12-31T20:17:40.631Z,14.66
2022-12-31T20:20:10.587Z,14.65
2022-12-31T20:22:38.508Z,14.69
2022-12-31T20:25:06.878Z,14.64
2022-12-31T20:27:34.938Z,14.62
2022-12-31T20:30:02.894Z,14.67
2022-12-31T20:32:31.271Z,14.69
2022-12-31T20:34:59.156Z,14.68
2022-12-31T20:37:28.338Z,14.69
2022-12-31T20:39:56.205Z,14.73
2022-12-31T20:42:23.974Z,14.72
2022-12-31T20:44:51.735Z,14.72
2022-12-31T20:47:19.551Z,14.75
2022-12-31T20:50:12.948Z,14.79
2022-12-31T20:52:36.552Z,14.76
2022-12-31T20:55:05.114Z,14.72
2022-12-31T20:57:34.036Z,14.75
2022-12-31T21:00:02.046Z,14.85
2022-12-31T21:02:41.295Z,14.86
2022-12-31T21:05:10.880Z,14.88
2022-12-31T21:07:40.165Z,14.89
2022-12-31T21:10:08.844Z,14.95
2022-12-31T21:12:44.753Z,14.93
2022-12-31T21:15:13.459Z,14.95
2022-12-31T21:17:41.403Z,14.99
2022-12-31T21:20:10.249Z,15.02
2022-12-31T21:22:38.112Z,15.00
2022-12-31T21:25:08.054Z,14.97
2022-12-31T21:27:36.797Z,14.99
2022-12-31T21:30:20.604Z,14.98
2022-12-31T21:32:48.683Z,14.97
2022-12-31T21:35:42.635Z,14.99
2022-12-31T21:38:06.626Z,15.06
2022-12-31T21:40:36.014Z,15.04
2022-12-31T21:43:03.808Z,15.02
2022-12-31T21:45:31.615Z,14.97
2022-12-31T21:48:17.459Z,14.94
2022-12-31T21:50:46.025Z,14.93
2022-12-31T21:53:16.548Z,14.91
2022-12-31T21:56:06.265Z,14.89
2022-12-31T21:58:34.441Z,14.94
2022-12-31T22:01:20.033Z,14.95
2022-12-31T22:03:47.993Z,14.93
2022-12-31T22:06:20.544Z,14.93
2022-12-31T22:08:50.639Z,14.92
2022-12-31T22:11:21.590Z,14.97
2022-12-31T22:13:50.135Z,14.98
2022-12-31T22:16:20.281Z,14.99
2022-12-31T22:18:48.908Z,14.98
2022-12-31T22:21:19.962Z,14.98
2022-12-31T22:23:50.089Z,14.99
2022-12-31T22:26:21.164Z,14.97
2022-12-31T22:28:49.232Z,14.97
2022-12-31T22:31:18.937Z,14.98
2022-12-31T22:33:47.075Z,15.02
2022-12-31T22:36:17.503Z,14.99
2022-12-31T22:38:46.142Z,14.99
2022-12-31T22:41:16.967Z,15.00
2022-12-31T22:43:48.581Z,14.99
2022-12-31T22:46:18.564Z,14.99
2022-12-31T22:48:46.893Z,15.02
2022-12-31T22:51:15.949Z,15.06
2022-12-31T22:53:44.191Z,15.04
2022-12-31T22:56:13.768Z,15.06
2022-12-31T22:58:41.824Z,15.05
2022-12-31T23:01:18.282Z,15.08
2022-12-31T23:03:46.820Z,15.05
2022-12-31T23:06:14.917Z,15.05
2022-12-31T23:09:03.045Z,15.03
2022-12-31T23:11:30.272Z,15.03
2022-12-31T23:14:15.652Z,15.01
2022-12-31T23:17:29.191Z,15.01
2022-12-31T23:20:07.873Z,15.00
2022-12-31T23:22:53.159Z,15.03
2022-12-31T23:25:21.018Z,15.07
2022-12-31T23:27:48.857Z,15.06
2022-12-31T23:30:16.730Z,15.04
2022-12-31T23:32:45.913Z,15.06
2022-12-31T23:35:13.959Z,15.12
2022-12-31T23:37:41.752Z,15.11
2022-12-31T23:40:15.745Z,15.07
2022-12-31T23:42:46.802Z,15.08
2022-12-31T23:45:14.615Z,15.07
2022-12-31T23:47:42.710Z,15.05
2022-12-31T23:50:11.866Z,15.03
2022-12-31T23:52:39.683Z,15.07
2022-12-31T23:55:07.889Z,15.11
2022-12-31T23:57:35.667Z,15.11
